sensor_id;sensor_type;location;lat;lon;timestamp;pressure;altitude;pressure_sealevel;temperature;humidity
3697;BME280;60662;48.810;8.872;2022-10-22T07:48:57;96604.31;;;14.81;79.21
3697;BME280;60662;48.810;8.872;2022-10-22T07:49:58;96614.94;;;14.79;79.76
3697;BME280;60662;48.810;8.872;2022-10-22T07:51:00;96615.50;;;14.84;79.79
3697;BME280;60662;48.810;8.872;2022-10-22T07:52:02;96595.19;;;14.86;79.33
3697;BME280;60662;48.810;8.872;2022-10-22T07:53:03;96616.47;;;15.11;78.40
3697;BME280;60662;48.810;8.872;2022-10-22T07:54:05;96592.34;;;15.59;77.26
3697;BME280;60662;48.810;8.872;2022-10-22T07:55:11;96599.84;;;15.65;76.37
3697;BME280;60662;48.810;8.872;2022-10-22T07:56:13;96611.69;;;15.45;76.75
3697;BME280;60662;48.810;8.872;2022-10-22T07:57:15;96609.75;;;15.34;77.41
3697;BME280;60662;48.810;8.872;2022-10-22T07:58:17;96606.59;;;15.69;76.16
3697;BME280;60662;48.810;8.872;2022-10-22T07:59:18;96588.16;;;15.83;75.88
3697;BME280;60662;48.810;8.872;2022-10-22T08:00:23;96600.81;;;16.17;74.83
3697;BME280;60662;48.810;8.872;2022-10-22T08:01:25;96601.97;;;16.64;72.56
3697;BME280;60662;48.810;8.872;2022-10-22T08:02:27;96610.25;;;17.10;71.46
3697;BME280;60662;48.810;8.872;2022-10-22T08:03:28;96616.16;;;17.62;69.45
3697;BME280;60662;48.810;8.872;2022-10-22T08:04:30;96610.75;;;17.15;69.96
3697;BME280;60662;48.810;8.872;2022-10-22T08:05:31;96610.59;;;16.79;71.40
3697;BME280;60662;48.810;8.872;2022-10-22T08:06:33;96616.13;;;16.63;72.35
3697;BME280;60662;48.810;8.872;2022-10-22T08:07:39;96618.53;;;16.28;73.36
3697;BME280;60662;48.810;8.872;2022-10-22T08:08:41;96615.53;;;15.94;74.76
3697;BME280;60662;48.810;8.872;2022-10-22T08:09:43;96621.88;;;15.91;74.75
3697;BME280;60662;48.810;8.872;2022-10-22T08:10:46;96622.53;;;16.59;72.60
3697;BME280;60662;48.810;8.872;2022-10-22T08:11:49;96625.00;;;17.12;71.03
3697;BME280;60662;48.810;8.872;2022-10-22T08:19:06;96625.34;;;17.45;70.56
3697;BME280;60662;48.810;8.872;2022-10-22T08:20:08;96627.28;;;17.78;69.39
3697;BME280;60662;48.810;8.872;2022-10-22T08:21:11;96618.75;;;17.75;68.55
3697;BME280;60662;48.810;8.872;2022-10-22T08:22:12;96605.69;;;18.09;68.78
3697;BME280;60662;48.810;8.872;2022-10-22T08:23:14;96628.34;;;18.58;67.09
3697;BME280;60662;48.810;8.872;2022-10-22T08:24:16;96619.56;;;19.26;64.77
3697;BME280;60662;48.810;8.872;2022-10-22T08:25:21;96607.00;;;19.51;62.72
3697;BME280;60662;48.810;8.872;2022-10-22T08:26:22;96617.47;;;19.96;62.55
3697;BME280;60662;48.810;8.872;2022-10-22T08:27:24;96625.47;;;19.85;61.46
3697;BME280;60662;48.810;8.872;2022-10-22T08:28:25;96616.19;;;20.33;60.83
3697;BME280;60662;48.810;8.872;2022-10-22T08:29:28;96616.31;;;20.74;60.22
3697;BME280;60662;48.810;8.872;2022-10-22T08:48:57;96636.56;;;23.75;51.87
3697;BME280;60662;48.810;8.872;2022-10-22T08:50:00;96632.25;;;24.28;50.66
3697;BME280;60662;48.810;8.872;2022-10-22T08:51:02;96626.19;;;24.44;49.59
3697;BME280;60662;48.810;8.872;2022-10-22T08:52:04;96628.78;;;24.10;49.81
3697;BME280;60662;48.810;8.872;2022-10-22T08:53:11;96634.28;;;24.35;50.11
3697;BME280;60662;48.810;8.872;2022-10-22T08:55:27;96636.38;;;24.49;48.89
3697;BME280;60662;48.810;8.872;2022-10-22T08:56:29;96636.88;;;24.71;49.13
3697;BME280;60662;48.810;8.872;2022-10-22T08:57:45;96641.59;;;24.33;50.08
3697;BME280;60662;48.810;8.872;2022-10-22T08:58:59;96635.25;;;23.61;51.65
3697;BME280;60662;48.810;8.872;2022-10-22T09:06:48;96644.19;;;23.14;52.51
3697;BME280;60662;48.810;8.872;2022-10-22T09:07:54;96639.38;;;22.90;54.00
3697;BME280;60662;48.810;8.872;2022-10-22T09:08:57;96651.78;;;23.09;54.17
3697;BME280;60662;48.810;8.872;2022-10-22T09:10:00;96650.38;;;21.60;57.03
3697;BME280;60662;48.810;8.872;2022-10-22T09:12:13;96650.06;;;21.53;58.74
3697;BME280;60662;48.810;8.872;2022-10-22T09:13:21;96633.78;;;20.86;60.79
3697;BME280;60662;48.810;8.872;2022-10-22T09:14:24;96644.41;;;21.17;59.96
3697;BME280;60662;48.810;8.872;2022-10-22T09:15:26;96649.38;;;21.41;58.43
3697;BME280;60662;48.810;8.872;2022-10-22T09:16:37;96645.03;;;20.99;59.57
3697;BME280;60662;48.810;8.872;2022-10-22T09:20:16;96648.06;;;21.26;59.29
3697;BME280;60662;48.810;8.872;2022-10-22T09:21:30;96619.22;;;20.49;61.18
3697;BME280;60662;48.810;8.872;2022-10-22T09:23:01;96650.38;;;19.94;62.50
3697;BME280;60662;48.810;8.872;2022-10-22T09:24:11;96653.50;;;20.62;63.30
3697;BME280;60662;48.810;8.872;2022-10-22T09:25:22;96652.91;;;20.80;63.09
3697;BME280;60662;48.810;8.872;2022-10-22T09:26:25;96650.66;;;20.12;63.14
3697;BME280;60662;48.810;8.872;2022-10-22T09:27:30;96643.19;;;21.41;60.59
3697;BME280;60662;48.810;8.872;2022-10-22T09:28:31;96652.69;;;22.13;58.64
3697;BME280;60662;48.810;8.872;2022-10-22T09:29:33;96652.50;;;22.64;57.49
3697;BME280;60662;48.810;8.872;2022-10-22T09:30:36;96662.66;;;23.54;55.19
3697;BME280;60662;48.810;8.872;2022-10-22T09:31:38;96662.59;;;23.45;55.00
3697;BME280;60662;48.810;8.872;2022-10-22T09:32:39;96661.75;;;24.27;52.98
3697;BME280;60662;48.810;8.872;2022-10-22T09:33:43;96667.53;;;24.22;54.01
3697;BME280;60662;48.810;8.872;2022-10-22T09:34:55;96665.16;;;24.82;49.43
3697;BME280;60662;48.810;8.872;2022-10-22T09:35:59;96672.97;;;24.12;50.31
3697;BME280;60662;48.810;8.872;2022-10-22T09:42:02;96679.97;;;25.80;46.86
3697;BME280;60662;48.810;8.872;2022-10-22T09:43:04;96649.19;;;25.67;45.64
3697;BME280;60662;48.810;8.872;2022-10-22T09:44:06;96679.41;;;26.11;45.09
3697;BME280;60662;48.810;8.872;2022-10-22T09:45:22;96674.25;;;25.32;46.65
3697;BME280;60662;48.810;8.872;2022-10-22T09:46:28;96675.88;;;24.64;47.19
3697;BME280;60662;48.810;8.872;2022-10-22T09:47:40;96666.38;;;23.43;49.72
3697;BME280;60662;48.810;8.872;2022-10-22T09:49:08;96665.50;;;22.67;52.34
3697;BME280;60662;48.810;8.872;2022-10-22T09:50:25;96685.41;;;22.14;53.78
3697;BME280;60662;48.810;8.872;2022-10-22T09:51:56;96682.63;;;21.45;56.54
3697;BME280;60662;48.810;8.872;2022-10-22T09:53:18;96683.78;;;21.52;56.06
3697;BME280;60662;48.810;8.872;2022-10-22T10:01:05;96696.84;;;21.65;54.23
3697;BME280;60662;48.810;8.872;2022-10-22T10:02:22;96688.22;;;22.12;53.92
3697;BME280;60662;48.810;8.872;2022-10-22T10:03:39;96699.72;;;22.52;53.67
3697;BME280;60662;48.810;8.872;2022-10-22T10:04:52;96701.50;;;22.71;53.01
3697;BME280;60662;48.810;8.872;2022-10-22T10:05:58;96700.19;;;23.88;50.74
3697;BME280;60662;48.810;8.872;2022-10-22T10:07:16;96708.81;;;24.99;48.85
3697;BME280;60662;48.810;8.872;2022-10-22T10:08:18;96699.56;;;25.11;48.05
3697;BME280;60662;48.810;8.872;2022-10-22T10:09:25;96705.84;;;25.02;47.47
3697;BME280;60662;48.810;8.872;2022-10-22T10:11:44;96715.38;;;25.65;47.09
3697;BME280;60662;48.810;8.872;2022-10-22T10:17:35;96715.03;;;26.28;44.94
3697;BME280;60662;48.810;8.872;2022-10-22T10:26:47;96733.91;;;27.25;43.46
3697;BME280;60662;48.810;8.872;2022-10-22T10:28:18;96727.44;;;26.86;43.19
3697;BME280;60662;48.810;8.872;2022-10-22T10:29:34;96730.00;;;27.52;42.25
3697;BME280;60662;48.810;8.872;2022-10-22T10:30:53;96730.75;;;26.31;43.86
3697;BME280;60662;48.810;8.872;2022-10-22T10:43:12;96711.69;;;28.27;41.66
3697;BME280;60662;48.810;8.872;2022-10-22T10:48:21;96721.44;;;25.41;46.87
3697;BME280;60662;48.810;8.872;2022-10-22T10:49:31;96732.69;;;24.02;49.45
3697;BME280;60662;48.810;8.872;2022-10-22T10:51:58;96734.88;;;24.97;48.26
3697;BME280;60662;48.810;8.872;2022-10-22T10:55:18;96733.31;;;25.89;46.38
3697;BME280;60662;48.810;8.872;2022-10-22T10:56:32;96730.97;;;26.87;44.69
3697;BME280;60662;48.810;8.872;2022-10-22T10:58:14;96734.41;;;28.16;42.22
3697;BME280;60662;48.810;8.872;2022-10-22T11:00:27;96727.06;;;27.23;43.59
3697;BME280;60662;48.810;8.872;2022-10-22T11:03:22;96721.72;;;27.06;44.12
3697;BME280;60662;48.810;8.872;2022-10-22T11:05:53;96718.78;;;27.89;40.13
3697;BME280;60662;48.810;8.872;2022-10-22T11:12:05;96723.50;;;28.18;40.38
3697;BME280;60662;48.810;8.872;2022-10-22T11:14:38;96720.06;;;26.88;42.26
3697;BME280;60662;48.810;8.872;2022-10-22T11:15:41;96713.72;;;26.81;43.19
3697;BME280;60662;48.810;8.872;2022-10-22T11:16:57;96702.28;;;27.12;41.91
3697;BME280;60662;48.810;8.872;2022-10-22T11:24:42;96713.88;;;28.24;40.02
3697;BME280;60662;48.810;8.872;2022-10-22T11:25:48;96718.25;;;27.53;41.45
3697;BME280;60662;48.810;8.872;2022-10-22T11:27:01;96717.53;;;27.12;42.42
3697;BME280;60662;48.810;8.872;2022-10-22T11:28:12;96683.88;;;27.09;43.96
3697;BME280;60662;48.810;8.872;2022-10-22T11:29:28;96706.16;;;27.58;42.57
3697;BME280;60662;48.810;8.872;2022-10-22T11:37:06;96712.66;;;28.96;39.03
3697;BME280;60662;48.810;8.872;2022-10-22T11:38:21;96705.63;;;27.23;41.97
3697;BME280;60662;48.810;8.872;2022-10-22T11:39:30;96712.09;;;25.45;44.73
3697;BME280;60662;48.810;8.872;2022-10-22T11:40:41;96711.94;;;27.30;42.14
3697;BME280;60662;48.810;8.872;2022-10-22T11:41:44;96701.19;;;28.41;40.70
3697;BME280;60662;48.810;8.872;2022-10-22T11:50:19;96702.31;;;27.04;42.00
3697;BME280;60662;48.810;8.872;2022-10-22T11:51:31;96701.44;;;27.20;42.44
3697;BME280;60662;48.810;8.872;2022-10-22T11:53:37;96699.78;;;27.67;40.35
3697;BME280;60662;48.810;8.872;2022-10-22T12:07:29;96698.41;;;22.86;48.76
3697;BME280;60662;48.810;8.872;2022-10-22T12:08:32;96703.94;;;22.45;49.14
3697;BME280;60662;48.810;8.872;2022-10-22T12:09:39;96698.31;;;22.38;49.76
3697;BME280;60662;48.810;8.872;2022-10-22T12:19:10;96691.00;;;21.41;51.84
3697;BME280;60662;48.810;8.872;2022-10-22T12:20:17;96690.13;;;21.61;50.77
3697;BME280;60662;48.810;8.872;2022-10-22T12:21:18;96692.59;;;23.00;48.21
3697;BME280;60662;48.810;8.872;2022-10-22T12:22:29;96683.84;;;22.80;48.16
3697;BME280;60662;48.810;8.872;2022-10-22T12:23:33;96691.16;;;22.48;48.21
3697;BME280;60662;48.810;8.872;2022-10-22T12:31:05;96686.31;;;24.12;46.76
3697;BME280;60662;48.810;8.872;2022-10-22T12:32:11;96685.56;;;23.19;49.34
3697;BME280;60662;48.810;8.872;2022-10-22T12:33:20;96677.31;;;22.25;50.45
3697;BME280;60662;48.810;8.872;2022-10-22T12:34:23;96679.78;;;21.27;51.23
3697;BME280;60662;48.810;8.872;2022-10-22T12:35:27;96672.50;;;21.60;52.63
3697;BME280;60662;48.810;8.872;2022-10-22T12:36:32;96680.50;;;21.80;53.67
3697;BME280;60662;48.810;8.872;2022-10-22T12:37:35;96686.22;;;23.30;52.09
3697;BME280;60662;48.810;8.872;2022-10-22T12:38:40;96680.72;;;23.32;52.20
3697;BME280;60662;48.810;8.872;2022-10-22T12:39:47;96692.13;;;23.52;53.37
3697;BME280;60662;48.810;8.872;2022-10-22T12:40:49;96679.13;;;23.02;53.47
3697;BME280;60662;48.810;8.872;2022-10-22T12:41:52;96678.72;;;22.39;53.41
3697;BME280;60662;48.810;8.872;2022-10-22T12:42:57;96674.19;;;21.71;53.22
3697;BME280;60662;48.810;8.872;2022-10-22T12:44:01;96679.31;;;20.81;56.17
3697;BME280;60662;48.810;8.872;2022-10-22T12:45:02;96675.69;;;20.61;55.73
3697;BME280;60662;48.810;8.872;2022-10-22T12:46:10;96675.16;;;20.88;56.22
3697;BME280;60662;48.810;8.872;2022-10-22T12:47:15;96676.25;;;20.65;56.96
3697;BME280;60662;48.810;8.872;2022-10-22T12:48:21;96669.78;;;21.50;54.07
3697;BME280;60662;48.810;8.872;2022-10-22T12:49:36;96666.66;;;22.15;53.39
3697;BME280;60662;48.810;8.872;2022-10-22T12:50:44;96676.06;;;22.49;52.53
3697;BME280;60662;48.810;8.872;2022-10-22T12:51:46;96676.38;;;22.93;51.07
3697;BME280;60662;48.810;8.872;2022-10-22T12:52:48;96673.47;;;23.52;48.21
3697;BME280;60662;48.810;8.872;2022-10-22T12:53:55;96673.34;;;22.69;50.69
3697;BME280;60662;48.810;8.872;2022-10-22T13:00:02;96676.34;;;22.36;50.44
3697;BME280;60662;48.810;8.872;2022-10-22T13:01:11;96666.78;;;23.20;46.87
3697;BME280;60662;48.810;8.872;2022-10-22T13:02:20;96654.22;;;24.04;43.87
3697;BME280;60662;48.810;8.872;2022-10-22T13:03:32;96676.63;;;25.00;43.33
3697;BME280;60662;48.810;8.872;2022-10-22T13:04:35;96667.50;;;23.03;44.62
3697;BME280;60662;48.810;8.872;2022-10-22T13:05:38;96674.06;;;23.08;44.61
3697;BME280;60662;48.810;8.872;2022-10-22T13:18:21;96673.88;;;26.62;41.09
3697;BME280;60662;48.810;8.872;2022-10-22T13:20:55;96671.28;;;25.78;40.56
3697;BME280;60662;48.810;8.872;2022-10-22T13:21:57;96668.88;;;26.42;40.51
3697;BME280;60662;48.810;8.872;2022-10-22T13:23:00;96670.88;;;26.32;40.16
3697;BME280;60662;48.810;8.872;2022-10-22T13:24:19;96648.59;;;25.39;42.19
3697;BME280;60662;48.810;8.872;2022-10-22T13:25:26;96662.63;;;25.92;40.48
3697;BME280;60662;48.810;8.872;2022-10-22T13:26:35;96662.72;;;25.57;40.94
3697;BME280;60662;48.810;8.872;2022-10-22T13:27:46;96650.72;;;24.04;43.75
3697;BME280;60662;48.810;8.872;2022-10-22T13:28:52;96656.63;;;25.04;43.70
3697;BME280;60662;48.810;8.872;2022-10-22T13:29:55;96654.91;;;25.30;43.01
3697;BME280;60662;48.810;8.872;2022-10-22T13:31:08;96654.63;;;23.81;45.04
3697;BME280;60662;48.810;8.872;2022-10-22T13:32:30;96655.41;;;23.08;46.94
3697;BME280;60662;48.810;8.872;2022-10-22T13:33:34;96658.16;;;22.98;46.81
3697;BME280;60662;48.810;8.872;2022-10-22T13:34:36;96660.94;;;22.20;48.99
3697;BME280;60662;48.810;8.872;2022-10-22T13:35:37;96665.72;;;23.31;47.27
3697;BME280;60662;48.810;8.872;2022-10-22T13:36:39;96657.84;;;23.85;45.23
3697;BME280;60662;48.810;8.872;2022-10-22T13:37:40;96662.44;;;23.19;44.68
3697;BME280;60662;48.810;8.872;2022-10-22T13:38:43;96673.63;;;23.13;46.58
3697;BME280;60662;48.810;8.872;2022-10-22T13:39:44;96664.53;;;23.89;44.56
3697;BME280;60662;48.810;8.872;2022-10-22T13:40:46;96669.84;;;24.61;43.60
3697;BME280;60662;48.810;8.872;2022-10-22T13:41:49;96660.44;;;25.02;42.17
3697;BME280;60662;48.810;8.872;2022-10-22T13:49:04;96651.06;;;25.83;42.04
3697;BME280;60662;48.810;8.872;2022-10-22T13:50:15;96651.84;;;24.90;43.49
3697;BME280;60662;48.810;8.872;2022-10-22T13:51:19;96651.78;;;23.47;45.83
3697;BME280;60662;48.810;8.872;2022-10-22T13:53:30;96658.09;;;24.54;44.20
3697;BME280;60662;48.810;8.872;2022-10-22T14:06:11;96664.84;;;22.35;46.34
3697;BME280;60662;48.810;8.872;2022-10-22T14:07:14;96656.38;;;22.79;45.27
3697;BME280;60662;48.810;8.872;2022-10-22T14:08:21;96664.91;;;23.30;44.79
3697;BME280;60662;48.810;8.872;2022-10-22T14:09:23;96660.91;;;22.59;46.24
3697;BME280;60662;48.810;8.872;2022-10-22T14:10:24;96667.63;;;22.34;46.93
3697;BME280;60662;48.810;8.872;2022-10-22T14:11:26;96638.34;;;22.63;46.39
3697;BME280;60662;48.810;8.872;2022-10-22T14:12:27;96648.34;;;22.22;46.93
3697;BME280;60662;48.810;8.872;2022-10-22T14:13:29;96661.53;;;22.91;46.66
3697;BME280;60662;48.810;8.872;2022-10-22T14:14:33;96621.69;;;21.44;48.08
3697;BME280;60662;48.810;8.872;2022-10-22T14:15:36;96652.81;;;21.73;47.90
3697;BME280;60662;48.810;8.872;2022-10-22T14:16:38;96656.59;;;23.34;44.40
3697;BME280;60662;48.810;8.872;2022-10-22T14:17:45;96632.19;;;24.02;43.68
3697;BME280;60662;48.810;8.872;2022-10-22T14:18:50;96646.22;;;24.67;42.79
3697;BME280;60662;48.810;8.872;2022-10-22T14:19:51;96652.97;;;24.79;42.02
3697;BME280;60662;48.810;8.872;2022-10-22T14:20:55;96644.25;;;24.51;41.11
3697;BME280;60662;48.810;8.872;2022-10-22T14:21:57;96648.97;;;24.12;42.75
3697;BME280;60662;48.810;8.872;2022-10-22T14:23:03;96653.44;;;23.48;44.76
3697;BME280;60662;48.810;8.872;2022-10-22T14:24:09;96649.16;;;22.52;47.58
3697;BME280;60662;48.810;8.872;2022-10-22T14:25:21;96648.69;;;23.70;44.85
3697;BME280;60662;48.810;8.872;2022-10-22T14:26:32;96650.25;;;24.08;44.13
3697;BME280;60662;48.810;8.872;2022-10-22T14:27:35;96641.59;;;24.33;44.13
3697;BME280;60662;48.810;8.872;2022-10-22T14:28:38;96642.19;;;23.54;45.77
3697;BME280;60662;48.810;8.872;2022-10-22T14:30:04;96649.44;;;23.80;47.29
3697;BME280;60662;48.810;8.872;2022-10-22T14:31:08;96644.72;;;22.90;48.14
3697;BME280;60662;48.810;8.872;2022-10-22T14:32:15;96642.75;;;22.92;47.58
3697;BME280;60662;48.810;8.872;2022-10-22T14:33:19;96647.28;;;22.72;47.36
3697;BME280;60662;48.810;8.872;2022-10-22T14:34:21;96643.19;;;23.25;47.01
3697;BME280;60662;48.810;8.872;2022-10-22T14:35:23;96621.75;;;23.91;45.65
3697;BME280;60662;48.810;8.872;2022-10-22T14:36:25;96638.59;;;24.54;45.09
3697;BME280;60662;48.810;8.872;2022-10-22T14:37:26;96645.56;;;24.65;44.92
3697;BME280;60662;48.810;8.872;2022-10-22T14:38:32;96638.09;;;25.11;45.30
3697;BME280;60662;48.810;8.872;2022-10-22T14:39:33;96634.38;;;24.69;44.72
3697;BME280;60662;48.810;8.872;2022-10-22T14:40:35;96649.34;;;24.62;44.13
3697;BME280;60662;48.810;8.872;2022-10-22T14:41:39;96658.56;;;24.68;44.25
3697;BME280;60662;48.810;8.872;2022-10-22T14:42:43;96653.31;;;23.86;45.80
3697;BME280;60662;48.810;8.872;2022-10-22T14:43:45;96650.91;;;22.81;49.22
3697;BME280;60662;48.810;8.872;2022-10-22T14:44:46;96646.13;;;23.50;47.00
3697;BME280;60662;48.810;8.872;2022-10-22T14:45:48;96650.38;;;23.89;45.59
3697;BME280;60662;48.810;8.872;2022-10-22T14:46:49;96659.88;;;23.27;47.26
3697;BME280;60662;48.810;8.872;2022-10-22T14:47:54;96657.72;;;21.97;49.87
3697;BME280;60662;48.810;8.872;2022-10-22T14:48:55;96654.19;;;22.26;50.36
3697;BME280;60662;48.810;8.872;2022-10-22T14:49:57;96649.47;;;22.39;49.60
3697;BME280;60662;48.810;8.872;2022-10-22T14:50:58;96657.81;;;22.34;49.93
3697;BME280;60662;48.810;8.872;2022-10-22T14:52:00;96659.88;;;23.27;48.84
3697;BME280;60662;48.810;8.872;2022-10-22T14:53:01;96644.59;;;22.82;47.88
3697;BME280;60662;48.810;8.872;2022-10-22T14:54:03;96665.84;;;22.15;48.92
3697;BME280;60662;48.810;8.872;2022-10-22T14:55:05;96646.75;;;22.69;49.02
3697;BME280;60662;48.810;8.872;2022-10-22T14:56:10;96655.56;;;23.44;48.19
3697;BME280;60662;48.810;8.872;2022-10-22T14:57:11;96668.59;;;23.10;49.39
3697;BME280;60662;48.810;8.872;2022-10-22T14:58:14;96663.88;;;23.04;47.39
3697;BME280;60662;48.810;8.872;2022-10-22T14:59:16;96655.75;;;22.95;46.20
3697;BME280;60662;48.810;8.872;2022-10-22T15:00:18;96670.66;;;22.78;48.57
3697;BME280;60662;48.810;8.872;2022-10-22T15:01:19;96673.56;;;22.95;48.25
3697;BME280;60662;48.810;8.872;2022-10-22T15:02:21;96663.31;;;23.38;48.43
3697;BME280;60662;48.810;8.872;2022-10-22T15:03:22;96653.59;;;22.71;50.62
3697;BME280;60662;48.810;8.872;2022-10-22T15:04:24;96664.59;;;22.96;49.65
3697;BME280;60662;48.810;8.872;2022-10-22T15:05:27;96672.47;;;22.88;49.70
3697;BME280;60662;48.810;8.872;2022-10-22T15:06:28;96673.69;;;23.41;49.06
3697;BME280;60662;48.810;8.872;2022-10-22T15:07:30;96673.25;;;23.45;48.90
3697;BME280;60662;48.810;8.872;2022-10-22T15:08:31;96675.25;;;24.25;47.56
3697;BME280;60662;48.810;8.872;2022-10-22T15:09:37;96670.41;;;24.65;46.09
3697;BME280;60662;48.810;8.872;2022-10-22T15:10:39;96658.41;;;23.61;48.80
3697;BME280;60662;48.810;8.872;2022-10-22T15:11:40;96674.75;;;23.76;49.16
3697;BME280;60662;48.810;8.872;2022-10-22T15:19:05;96671.38;;;23.74;49.06
3697;BME280;60662;48.810;8.872;2022-10-22T15:20:06;96673.75;;;24.49;47.34
3697;BME280;60662;48.810;8.872;2022-10-22T15:21:18;96674.88;;;24.91;44.98
3697;BME280;60662;48.810;8.872;2022-10-22T15:22:21;96674.78;;;24.74;45.47
3697;BME280;60662;48.810;8.872;2022-10-22T15:23:22;96675.75;;;24.47;44.87
3697;BME280;60662;48.810;8.872;2022-10-22T15:24:24;96676.56;;;24.92;44.63
3697;BME280;60662;48.810;8.872;2022-10-22T15:25:25;96657.25;;;24.72;44.57
3697;BME280;60662;48.810;8.872;2022-10-22T15:26:27;96677.72;;;24.45;45.18
3697;BME280;60662;48.810;8.872;2022-10-22T15:27:29;96673.97;;;23.93;46.34
3697;BME280;60662;48.810;8.872;2022-10-22T15:28:31;96671.53;;;23.72;47.37
3697;BME280;60662;48.810;8.872;2022-10-22T15:29:32;96677.78;;;22.88;48.74
3697;BME280;60662;48.810;8.872;2022-10-22T15:37:07;96669.06;;;22.09;51.75
3697;BME280;60662;48.810;8.872;2022-10-22T15:38:10;96662.47;;;22.13;51.91
3697;BME280;60662;48.810;8.872;2022-10-22T15:39:11;96643.66;;;22.63;49.68
3697;BME280;60662;48.810;8.872;2022-10-22T15:40:12;96664.97;;;22.63;49.79
3697;BME280;60662;48.810;8.872;2022-10-22T15:41:17;96665.28;;;22.31;50.57
3697;BME280;60662;48.810;8.872;2022-10-22T15:42:19;96662.88;;;22.28;48.87
3697;BME280;60662;48.810;8.872;2022-10-22T15:43:20;96670.44;;;22.13;50.25
3697;BME280;60662;48.810;8.872;2022-10-22T15:44:27;96665.38;;;21.71;52.14
3697;BME280;60662;48.810;8.872;2022-10-22T15:45:29;96656.16;;;20.62;54.75
3697;BME280;60662;48.810;8.872;2022-10-22T15:46:31;96661.78;;;20.27;55.91
3697;BME280;60662;48.810;8.872;2022-10-22T15:47:35;96657.81;;;20.00;55.87
3697;BME280;60662;48.810;8.872;2022-10-22T15:48:37;96661.59;;;19.74;55.48
3697;BME280;60662;48.810;8.872;2022-10-22T15:49:38;96656.50;;;19.94;55.50
3697;BME280;60662;48.810;8.872;2022-10-22T15:50:41;96654.38;;;19.21;56.35
3697;BME280;60662;48.810;8.872;2022-10-22T15:51:43;96671.19;;;19.32;56.73
3697;BME280;60662;48.810;8.872;2022-10-22T15:52:45;96664.53;;;18.47;60.21
3697;BME280;60662;48.810;8.872;2022-10-22T15:53:57;96670.19;;;18.65;59.12
3697;BME280;60662;48.810;8.872;2022-10-22T15:54:58;96667.34;;;18.68;59.10
3697;BME280;60662;48.810;8.872;2022-10-22T15:56:00;96669.22;;;18.54;60.23
3697;BME280;60662;48.810;8.872;2022-10-22T15:57:02;96676.19;;;18.55;59.69
3697;BME280;60662;48.810;8.872;2022-10-22T15:58:08;96673.59;;;18.78;57.66
3697;BME280;60662;48.810;8.872;2022-10-22T15:59:11;96656.44;;;18.37;60.33
3697;BME280;60662;48.810;8.872;2022-10-22T16:00:13;96663.22;;;18.17;60.81
3697;BME280;60662;48.810;8.872;2022-10-22T16:01:15;96665.00;;;18.05;60.31
3697;BME280;60662;48.810;8.872;2022-10-22T16:02:16;96677.03;;;18.09;60.46
3697;BME280;60662;48.810;8.872;2022-10-22T16:03:18;96681.69;;;18.41;60.69
3697;BME280;60662;48.810;8.872;2022-10-22T16:04:19;96675.84;;;18.49;59.97
3697;BME280;60662;48.810;8.872;2022-10-22T16:05:20;96671.63;;;18.69;59.52
3697;BME280;60662;48.810;8.872;2022-10-22T16:06:22;96671.72;;;18.44;59.96
3697;BME280;60662;48.810;8.872;2022-10-22T16:07:24;96680.81;;;18.29;61.15
3697;BME280;60662;48.810;8.872;2022-10-22T16:08:26;96679.00;;;17.94;61.73
3697;BME280;60662;48.810;8.872;2022-10-22T16:09:28;96660.53;;;17.57;62.98
3697;BME280;60662;48.810;8.872;2022-10-22T16:10:29;96675.59;;;17.43;63.48
3697;BME280;60662;48.810;8.872;2022-10-22T16:11:31;96667.31;;;17.24;64.19
3697;BME280;60662;48.810;8.872;2022-10-22T16:12:32;96669.31;;;17.20;63.44
3697;BME280;60662;48.810;8.872;2022-10-22T16:13:36;96663.31;;;16.79;65.24
3697;BME280;60662;48.810;8.872;2022-10-22T16:14:37;96680.75;;;16.95;65.07
3697;BME280;60662;48.810;8.872;2022-10-22T16:15:39;96661.13;;;16.99;63.79
3697;BME280;60662;48.810;8.872;2022-10-22T16:16:47;96670.13;;;16.96;64.40
3697;BME280;60662;48.810;8.872;2022-10-22T16:17:50;96671.56;;;16.88;64.63
3697;BME280;60662;48.810;8.872;2022-10-22T16:18:52;96666.84;;;16.67;65.02
3697;BME280;60662;48.810;8.872;2022-10-22T16:19:54;96678.75;;;16.73;64.85
3697;BME280;60662;48.810;8.872;2022-10-22T16:20:55;96674.72;;;16.41;65.80
3697;BME280;60662;48.810;8.872;2022-10-22T16:22:00;96677.13;;;16.31;65.81
3697;BME280;60662;48.810;8.872;2022-10-22T16:23:03;96658.78;;;16.30;65.66
3697;BME280;60662;48.810;8.872;2022-10-22T16:30:52;96666.69;;;15.62;68.36
3697;BME280;60662;48.810;8.872;2022-10-22T16:31:53;96671.84;;;15.64;68.71
3697;BME280;60662;48.810;8.872;2022-10-22T16:32:59;96666.94;;;15.45;68.88
3697;BME280;60662;48.810;8.872;2022-10-22T16:34:03;96671.31;;;15.59;69.00
3697;BME280;60662;48.810;8.872;2022-10-22T16:35:05;96656.22;;;15.48;69.20
3697;BME280;60662;48.810;8.872;2022-10-22T16:42:55;96679.53;;;15.54;70.07
3697;BME280;60662;48.810;8.872;2022-10-22T16:43:56;96692.19;;;15.62;69.71
3697;BME280;60662;48.810;8.872;2022-10-22T16:45:01;96688.47;;;15.37;70.45
3697;BME280;60662;48.810;8.872;2022-10-22T16:46:02;96688.47;;;15.37;70.74
3697;BME280;60662;48.810;8.872;2022-10-22T16:47:08;96688.63;;;15.21;71.44
3697;BME280;60662;48.810;8.872;2022-10-22T16:54:56;96694.34;;;14.99;72.75
3697;BME280;60662;48.810;8.872;2022-10-22T16:55:58;96672.28;;;14.87;72.47
3697;BME280;60662;48.810;8.872;2022-10-22T16:56:59;96695.56;;;15.08;72.81
3697;BME280;60662;48.810;8.872;2022-10-22T16:58:01;96699.72;;;14.97;72.90
3697;BME280;60662;48.810;8.872;2022-10-22T16:59:03;96694.91;;;15.04;72.63
3697;BME280;60662;48.810;8.872;2022-10-22T17:00:05;96700.56;;;15.12;72.70
3697;BME280;60662;48.810;8.872;2022-10-22T17:01:10;96698.00;;;15.11;72.71
3697;BME280;60662;48.810;8.872;2022-10-22T17:02:15;96701.47;;;14.97;73.06
3697;BME280;60662;48.810;8.872;2022-10-22T17:03:16;96704.00;;;14.84;73.50
3697;BME280;60662;48.810;8.872;2022-10-22T17:04:17;96691.91;;;14.67;74.34
3697;BME280;60662;48.810;8.872;2022-10-22T17:05:19;96700.81;;;14.79;73.61
3697;BME280;60662;48.810;8.872;2022-10-22T17:06:23;96679.22;;;14.74;73.75
3697;BME280;60662;48.810;8.872;2022-10-22T17:07:24;96690.03;;;14.98;72.48
3697;BME280;60662;48.810;8.872;2022-10-22T17:08:26;96694.19;;;15.02;72.56